Time;durP1;ratioP1;P1;durP2;ratioP2;P2;SDS_P1;SDS_P2;PMS_P1;PMS_P2;Temp;Humidity;BMP_temperature;BMP_pressure;BME280_temperature;BME280_humidity;BME280_pressure;Samples;Min_cycle;Max_cycle;Signal;HPM_P1;HPM_P2
2023/08/23 00:01:56;;;;;;;2.15;0.75;;;;;;;;;;4943143;29;20035;-74
2023/08/23 00:04:22;;;;;;;3.60;0.60;;;;;;;;;;4942881;29;20609;-74
2023/08/23 00:06:48;;;;;;;2.05;0.60;;;;;;;;;;4943174;29;20512;-76
2023/08/23 00:09:15;;;;;;;1.13;0.63;;;;;;;;;;4942551;29;20032;-76
2023/08/23 00:11:41;;;;;;;2.85;0.60;;;;;;;;;;4942561;29;20378;-76
2023/08/23 00:14:07;;;;;;;2.42;0.80;;;;;;;;;;4942824;29;20316;-75
2023/08/23 00:16:33;;;;;;;2.65;0.75;;;;;;;;;;4942851;29;20055;-76
2023/08/23 00:18:59;;;;;;;2.75;0.70;;;;;;;;;;4942283;29;20027;-75
2023/08/23 00:21:27;;;;;;;1.52;0.60;;;;;;;;;;4942659;29;20038;-76
2023/08/23 00:23:53;;;;;;;2.10;0.63;;;;;;;;;;4942375;29;20059;-75
2023/08/23 00:26:19;;;;;;;1.85;0.50;;;;;;;;;;4942385;29;20470;-75
2023/08/23 00:28:45;;;;;;;2.40;0.70;;;;;;;;;;4942292;29;20042;-75
2023/08/23 00:31:11;;;;;;;3.45;1.00;;;;;;;;;;4942815;29;20028;-75
2023/08/23 00:33:37;;;;;;;1.75;0.40;;;;;;;;;;4942353;29;20039;-75
2023/08/23 00:36:03;;;;;;;1.13;0.50;;;;;;;;;;4942626;29;20020;-75
2023/08/23 00:38:29;;;;;;;2.75;0.70;;;;;;;;;;4937574;29;20035;-75
2023/08/23 00:40:55;;;;;;;2.80;0.70;;;;;;;;;;4933987;29;20032;-75
2023/08/23 00:43:21;;;;;;;1.83;0.60;;;;;;;;;;4942268;29;20083;-75
2023/08/23 00:45:47;;;;;;;1.75;0.80;;;;;;;;;;4942367;29;20189;-75
2023/08/23 00:48:13;;;;;;;2.15;0.55;;;;;;;;;;4941858;29;20059;-75
2023/08/23 00:50:43;;;;;;;1.10;0.70;;;;;;;;;;4941457;29;20038;-75
2023/08/23 00:53:10;;;;;;;1.50;0.60;;;;;;;;;;4941792;29;20031;-75
2023/08/23 00:55:36;;;;;;;2.25;0.63;;;;;;;;;;4941998;29;20047;-75
2023/08/23 00:58:02;;;;;;;2.60;0.50;;;;;;;;;;4941931;29;20034;-75
2023/08/23 01:00:30;;;;;;;1.15;0.60;;;;;;;;;;4925122;29;20050;-75
2023/08/23 01:02:56;;;;;;;2.03;0.77;;;;;;;;;;4941870;29;20031;-75
2023/08/23 01:05:25;;;;;;;1.42;0.70;;;;;;;;;;4941181;29;20032;-75
2023/08/23 01:08:03;;;;;;;1.98;0.55;;;;;;;;;;4941757;29;20095;-75
2023/08/23 01:10:49;;;;;;;1.25;0.63;;;;;;;;;;4941375;29;20034;-75
2023/08/23 01:13:28;;;;;;;1.63;0.93;;;;;;;;;;4941529;29;20438;-75
2023/08/23 01:15:54;;;;;;;2.55;1.00;;;;;;;;;;4941649;29;20516;-76
2023/08/23 01:18:21;;;;;;;2.80;0.82;;;;;;;;;;4941799;29;20023;-75
2023/08/23 01:20:49;;;;;;;1.67;0.80;;;;;;;;;;4941486;29;20030;-75
2023/08/23 01:23:16;;;;;;;2.03;0.80;;;;;;;;;;4941394;29;20048;-75
2023/08/23 01:25:51;;;;;;;3.88;1.02;;;;;;;;;;4941457;29;20056;-74
2023/08/23 01:28:18;;;;;;;2.67;0.80;;;;;;;;;;4941030;29;20789;-74
2023/08/23 01:30:44;;;;;;;3.05;0.93;;;;;;;;;;4941268;29;20107;-74
2023/08/23 01:33:28;;;;;;;2.55;0.80;;;;;;;;;;4941518;29;20028;-74
2023/08/23 01:36:05;;;;;;;3.63;1.20;;;;;;;;;;4941472;29;20438;-74
2023/08/23 01:38:33;;;;;;;3.42;0.80;;;;;;;;;;4936351;29;20032;-74
2023/08/23 01:40:59;;;;;;;1.95;0.80;;;;;;;;;;4916196;29;20032;-75
2023/08/23 01:43:25;;;;;;;1.58;0.63;;;;;;;;;;4941114;29;20485;-77
2023/08/23 01:45:51;;;;;;;1.65;0.73;;;;;;;;;;4941281;29;20027;-77
2023/08/23 01:48:17;;;;;;;1.23;0.82;;;;;;;;;;4940793;29;20028;-77
2023/08/23 01:50:43;;;;;;;2.22;0.85;;;;;;;;;;4941040;29;20035;-77
2023/08/23 01:53:09;;;;;;;2.85;1.00;;;;;;;;;;4940610;29;20465;-77
2023/08/23 01:55:35;;;;;;;2.15;0.90;;;;;;;;;;4940927;29;20034;-77
2023/08/23 01:58:01;;;;;;;2.55;0.80;;;;;;;;;;4940669;29;20027;-75
2023/08/23 02:00:27;;;;;;;2.85;1.15;;;;;;;;;;4941045;29;20087;-75
2023/08/23 02:02:53;;;;;;;3.60;1.23;;;;;;;;;;4923674;29;20481;-75
2023/08/23 02:05:19;;;;;;;1.30;0.90;;;;;;;;;;4940781;29;20028;-76
2023/08/23 02:07:45;;;;;;;3.28;1.10;;;;;;;;;;4940534;29;20036;-77
2023/08/23 02:10:11;;;;;;;3.60;0.90;;;;;;;;;;4940886;29;20506;-76
2023/08/23 02:12:37;;;;;;;1.25;0.73;;;;;;;;;;4940585;29;20031;-77
2023/08/23 02:15:03;;;;;;;2.30;0.93;;;;;;;;;;4941022;29;20384;-77
2023/08/23 02:17:29;;;;;;;1.55;0.98;;;;;;;;;;4940526;29;20032;-76
2023/08/23 02:19:55;;;;;;;2.22;0.98;;;;;;;;;;4940218;29;20092;-76
2023/08/23 02:22:21;;;;;;;2.45;1.15;;;;;;;;;;4940095;29;20505;-76
2023/08/23 02:24:47;;;;;;;2.80;1.10;;;;;;;;;;4940337;29;20113;-75
2023/08/23 02:27:13;;;;;;;3.42;1.58;;;;;;;;;;4940303;29;20062;-76
2023/08/23 02:29:39;;;;;;;2.17;0.80;;;;;;;;;;4940562;29;20024;-75
2023/08/23 02:32:05;;;;;;;1.63;0.80;;;;;;;;;;4940215;29;20023;-75
2023/08/23 02:34:32;;;;;;;1.58;0.80;;;;;;;;;;4940432;29;20055;-77
2023/08/23 02:36:58;;;;;;;2.33;0.98;;;;;;;;;;4940221;29;20028;-75
2023/08/23 02:39:24;;;;;;;1.83;1.05;;;;;;;;;;4928627;29;20721;-76
2023/08/23 02:41:50;;;;;;;1.73;0.80;;;;;;;;;;4921642;29;20099;-75
2023/08/23 02:44:16;;;;;;;1.23;0.82;;;;;;;;;;4940293;29;20035;-75
2023/08/23 02:46:42;;;;;;;2.13;1.00;;;;;;;;;;4940137;29;20027;-78
2023/08/23 02:49:08;;;;;;;1.30;0.70;;;;;;;;;;4940084;29;20027;-77
2023/08/23 02:51:33;;;;;;;2.17;0.90;;;;;;;;;;4940044;29;20499;-76
2023/08/23 02:53:59;;;;;;;1.92;0.80;;;;;;;;;;4939900;29;20024;-76
2023/08/23 02:56:25;;;;;;;1.90;0.90;;;;;;;;;;4939832;29;20401;-77
2023/08/23 02:58:51;;;;;;;2.35;1.00;;;;;;;;;;4939764;29;20469;-77
2023/08/23 03:01:17;;;;;;;3.55;0.80;;;;;;;;;;4939862;29;20544;-76
2023/08/23 03:03:43;;;;;;;3.05;1.30;;;;;;;;;;4940133;29;20437;-76
2023/08/23 03:06:09;;;;;;;3.05;1.20;;;;;;;;;;4939476;29;20032;-76
2023/08/23 03:08:35;;;;;;;2.35;1.10;;;;;;;;;;4939740;29;20024;-76
2023/08/23 03:11:05;;;;;;;2.05;0.98;;;;;;;;;;4939487;29;20036;-78
2023/08/23 03:13:32;;;;;;;1.65;1.02;;;;;;;;;;4939567;29;20030;-78
2023/08/23 03:15:58;;;;;;;4.75;1.40;;;;;;;;;;4939838;29;20039;-78
2023/08/23 03:18:24;;;;;;;3.95;1.25;;;;;;;;;;4940061;29;20031;-78
2023/08/23 03:20:50;;;;;;;3.30;1.17;;;;;;;;;;4923023;29;20480;-79
2023/08/23 03:23:17;;;;;;;1.10;0.90;;;;;;;;;;4939480;29;20075;-78
2023/08/23 03:25:46;;;;;;;2.42;1.50;;;;;;;;;;4939668;29;20499;-78
2023/08/23 03:28:13;;;;;;;2.80;1.10;;;;;;;;;;4939375;29;20106;-74
2023/08/23 03:30:39;;;;;;;2.17;1.30;;;;;;;;;;4926946;29;20111;-74
2023/08/23 03:33:05;;;;;;;2.28;1.20;;;;;;;;;;4939638;29;20099;-76
2023/08/23 03:35:31;;;;;;;2.83;1.38;;;;;;;;;;4939836;29;20024;-76
2023/08/23 03:37:57;;;;;;;2.30;1.35;;;;;;;;;;4938902;29;20051;-76
2023/08/23 03:40:23;;;;;;;1.73;1.10;;;;;;;;;;4910461;29;20038;-76
2023/08/23 03:42:49;;;;;;;2.58;1.40;;;;;;;;;;4939442;29;20070;-77
2023/08/23 03:45:17;;;;;;;2.13;1.08;;;;;;;;;;4939806;29;20032;-79
2023/08/23 03:47:44;;;;;;;3.13;1.20;;;;;;;;;;4939416;29;20028;-78
2023/08/23 03:50:10;;;;;;;2.60;1.38;;;;;;;;;;4939608;29;20035;-80
2023/08/23 03:52:36;;;;;;;2.15;1.40;;;;;;;;;;4939301;29;20098;-79
2023/08/23 03:55:02;;;;;;;2.15;1.20;;;;;;;;;;4939483;29;20023;-78
2023/08/23 03:57:28;;;;;;;2.22;1.25;;;;;;;;;;4939326;29;20484;-78
2023/08/23 03:59:54;;;;;;;2.30;1.30;;;;;;;;;;4939616;29;20392;-77
2023/08/23 04:02:20;;;;;;;2.13;1.20;;;;;;;;;;4939461;29;20023;-77
2023/08/23 04:04:46;;;;;;;2.78;1.20;;;;;;;;;;4939538;29;20059;-77
2023/08/23 04:07:14;;;;;;;3.65;1.40;;;;;;;;;;4939089;29;20024;-77
2023/08/23 04:09:40;;;;;;;2.38;1.35;;;;;;;;;;4939424;29;20039;-77
2023/08/23 04:12:07;;;;;;;2.13;1.33;;;;;;;;;;4939269;29;20108;-77
2023/08/23 04:14:33;;;;;;;1.40;1.15;;;;;;;;;;4939093;29;20111;-77
2023/08/23 04:16:59;;;;;;;1.50;1.25;;;;;;;;;;4939429;29;20075;-78
2023/08/23 04:19:26;;;;;;;1.98;1.20;;;;;;;;;;4939050;29;20028;-77
2023/08/23 04:21:52;;;;;;;3.75;1.40;;;;;;;;;;4939234;29;20119;-77
2023/08/23 04:24:18;;;;;;;1.50;1.30;;;;;;;;;;4939154;29;20908;-77
2023/08/23 04:26:44;;;;;;;3.03;1.50;;;;;;;;;;4941457;29;20028;-77
2023/08/23 04:29:10;;;;;;;2.80;1.40;;;;;;;;;;4942475;29;20024;-78
2023/08/23 04:31:36;;;;;;;2.47;1.33;;;;;;;;;;4942554;29;20078;-78
2023/08/23 04:34:04;;;;;;;2.35;1.40;;;;;;;;;;4942553;29;20039;-78
2023/08/23 04:36:31;;;;;;;2.75;1.58;;;;;;;;;;4942458;29;20393;-78
2023/08/23 04:38:57;;;;;;;3.63;1.38;;;;;;;;;;4934239;29;20037;-77
2023/08/23 04:41:23;;;;;;;3.60;1.60;;;;;;;;;;4937627;29;20106;-77
2023/08/23 04:43:49;;;;;;;2.78;1.25;;;;;;;;;;4942469;29;20114;-77
2023/08/23 04:46:15;;;;;;;2.42;1.40;;;;;;;;;;4942320;29;20031;-77
2023/08/23 04:48:41;;;;;;;2.15;1.20;;;;;;;;;;4942195;29;20028;-77
2023/08/23 04:51:10;;;;;;;2.25;1.45;;;;;;;;;;4942080;29;20028;-77
2023/08/23 04:53:37;;;;;;;2.45;1.30;;;;;;;;;;4942032;29;20038;-77
2023/08/23 04:56:03;;;;;;;3.88;1.17;;;;;;;;;;4941807;29;20024;-77
2023/08/23 04:58:30;;;;;;;3.92;1.50;;;;;;;;;;4952318;29;20027;-76
2023/08/23 05:01:05;;;;;;;2.15;1.33;;;;;;;;;;4952231;29;20032;-76
2023/08/23 05:03:32;;;;;;;1.88;1.33;;;;;;;;;;4941671;29;20598;-76
2023/08/23 05:05:58;;;;;;;3.53;1.30;;;;;;;;;;4953712;29;20524;-76
2023/08/23 05:08:24;;;;;;;2.67;1.30;;;;;;;;;;4941692;29;20035;-76
2023/08/23 05:10:54;;;;;;;2.72;1.33;;;;;;;;;;4941435;29;20028;-77
2023/08/23 05:13:21;;;;;;;2.13;1.23;;;;;;;;;;4932368;29;20016;-77
2023/08/23 05:15:53;;;;;;;2.25;1.40;;;;;;;;;;4942369;29;20056;-77
2023/08/23 05:18:20;;;;;;;3.35;1.42;;;;;;;;;;4941629;29;20028;-77
2023/08/23 05:20:46;;;;;;;6.32;1.90;;;;;;;;;;4924756;29;20039;-77
2023/08/23 05:23:12;;;;;;;3.05;1.58;;;;;;;;;;4941106;29;20576;-77
2023/08/23 05:25:38;;;;;;;3.60;1.67;;;;;;;;;;4941376;29;20034;-77
2023/08/23 05:28:04;;;;;;;2.90;1.33;;;;;;;;;;4941369;29;20107;-76
2023/08/23 05:30:33;;;;;;;3.05;1.80;;;;;;;;;;4943287;29;20384;-76
2023/08/23 05:32:59;;;;;;;3.15;2.00;;;;;;;;;;4941330;29;20023;-76
2023/08/23 05:35:25;;;;;;;2.40;1.45;;;;;;;;;;4941268;29;20533;-77
2023/08/23 05:37:51;;;;;;;1.83;1.50;;;;;;;;;;4940702;29;20475;-77
2023/08/23 05:40:17;;;;;;;3.10;1.50;;;;;;;;;;4928131;29;20489;-77
2023/08/23 05:42:43;;;;;;;3.40;1.70;;;;;;;;;;4941478;29;20034;-77
2023/08/23 05:45:10;;;;;;;4.40;1.73;;;;;;;;;;4940998;29;20027;-77
2023/08/23 05:47:36;;;;;;;1.95;1.50;;;;;;;;;;4940922;29;20052;-77
2023/08/23 05:50:01;;;;;;;3.63;1.55;;;;;;;;;;4940764;29;20039;-76
2023/08/23 05:52:28;;;;;;;3.15;1.45;;;;;;;;;;4923677;29;20051;-76
2023/08/23 05:54:54;;;;;;;2.95;1.38;;;;;;;;;;4940751;29;20020;-76
2023/08/23 05:57:19;;;;;;;1.85;1.40;;;;;;;;;;4940934;29;20496;-76
2023/08/23 05:59:45;;;;;;;2.05;1.45;;;;;;;;;;4940670;29;20034;-76
2023/08/23 06:02:11;;;;;;;3.47;1.50;;;;;;;;;;4940865;29;20039;-76
2023/08/23 06:04:37;;;;;;;2.75;1.60;;;;;;;;;;4943176;29;20058;-78
2023/08/23 06:07:04;;;;;;;2.15;1.42;;;;;;;;;;4940582;29;20032;-78
2023/08/23 06:09:34;;;;;;;2.03;1.30;;;;;;;;;;4940553;29;20527;-78
2023/08/23 06:12:00;;;;;;;3.17;1.55;;;;;;;;;;4940600;29;20024;-78
2023/08/23 06:14:26;;;;;;;2.42;1.50;;;;;;;;;;4927678;29;20030;-78
2023/08/23 06:16:52;;;;;;;2.10;1.40;;;;;;;;;;4940600;29;20051;-77
2023/08/23 06:19:18;;;;;;;3.17;1.40;;;;;;;;;;4944362;29;20039;-76
2023/08/23 06:21:46;;;;;;;3.10;1.65;;;;;;;;;;4953885;29;20203;-76
2023/08/23 06:24:12;;;;;;;3.53;1.40;;;;;;;;;;4927586;29;20031;-76
2023/08/23 06:26:38;;;;;;;2.08;1.60;;;;;;;;;;4940154;29;20111;-76
2023/08/23 06:29:04;;;;;;;2.63;1.58;;;;;;;;;;4940078;29;20059;-77
2023/08/23 06:31:31;;;;;;;2.55;1.42;;;;;;;;;;4940132;29;20051;-77
2023/08/23 06:33:57;;;;;;;2.25;1.40;;;;;;;;;;4923435;29;20024;-78
2023/08/23 06:36:23;;;;;;;3.83;1.88;;;;;;;;;;4940067;29;20038;-78
2023/08/23 06:38:49;;;;;;;2.80;1.60;;;;;;;;;;4933009;29;20036;-78
2023/08/23 06:41:15;;;;;;;2.22;1.60;;;;;;;;;;4934169;29;20027;-76
2023/08/23 06:43:41;;;;;;;3.00;1.30;;;;;;;;;;4940166;29;20032;-76
2023/08/23 06:46:07;;;;;;;2.95;1.40;;;;;;;;;;4939944;29;20481;-76
2023/08/23 06:48:33;;;;;;;3.95;1.55;;;;;;;;;;4940465;29;20046;-76
2023/08/23 06:51:02;;;;;;;2.47;1.70;;;;;;;;;;4947165;29;20024;-76
2023/08/23 06:53:28;;;;;;;4.60;1.52;;;;;;;;;;4943898;29;20038;-72
2023/08/23 06:55:55;;;;;;;2.95;1.50;;;;;;;;;;4950867;29;20024;-72
2023/08/23 06:58:21;;;;;;;3.17;1.50;;;;;;;;;;4940090;29;20244;-70
2023/08/23 07:00:47;;;;;;;4.57;1.85;;;;;;;;;;4939940;29;20079;-70
2023/08/23 07:03:13;;;;;;;2.08;1.40;;;;;;;;;;4945115;29;20040;-70
2023/08/23 07:05:39;;;;;;;3.65;1.48;;;;;;;;;;4932673;29;20027;-70
2023/08/23 07:08:05;;;;;;;3.00;1.48;;;;;;;;;;4939790;29;20034;-70
2023/08/23 07:10:31;;;;;;;2.42;1.55;;;;;;;;;;4939720;29;20035;-70
2023/08/23 07:12:57;;;;;;;1.75;1.30;;;;;;;;;;4939883;29;20032;-71
2023/08/23 07:15:24;;;;;;;2.80;1.42;;;;;;;;;;4939725;29;20023;-68
2023/08/23 07:17:49;;;;;;;2.10;1.42;;;;;;;;;;4939543;29;20062;-69
2023/08/23 07:20:16;;;;;;;4.30;1.55;;;;;;;;;;4939145;29;20114;-69
2023/08/23 07:22:42;;;;;;;2.53;1.48;;;;;;;;;;4939482;29;20055;-69
2023/08/23 07:25:08;;;;;;;2.17;1.60;;;;;;;;;;4939632;29;20028;-69
2023/08/23 07:27:36;;;;;;;3.47;1.50;;;;;;;;;;4939819;29;20031;-69
2023/08/23 07:30:03;;;;;;;2.50;1.80;;;;;;;;;;4939539;29;20032;-69
2023/08/23 07:32:30;;;;;;;4.22;1.73;;;;;;;;;;4939949;29;20034;-68
2023/08/23 07:34:57;;;;;;;2.35;1.77;;;;;;;;;;4939593;29;20024;-67
2023/08/23 07:37:23;;;;;;;4.03;1.80;;;;;;;;;;4939124;29;20100;-68
2023/08/23 07:39:49;;;;;;;2.38;1.60;;;;;;;;;;4908125;29;20056;-68
2023/08/23 07:42:15;;;;;;;2.17;1.33;;;;;;;;;;4920992;29;20404;-68
2023/08/23 07:44:41;;;;;;;2.90;1.33;;;;;;;;;;4920939;29;20032;-68
2023/08/23 07:47:07;;;;;;;4.22;1.80;;;;;;;;;;4939743;29;20039;-68
2023/08/23 07:49:33;;;;;;;2.35;1.30;;;;;;;;;;4939342;29;20023;-68
2023/08/23 07:51:59;;;;;;;3.63;1.40;;;;;;;;;;4939243;29;20110;-68
2023/08/23 07:54:25;;;;;;;3.15;1.58;;;;;;;;;;4939474;29;20027;-68
2023/08/23 07:56:51;;;;;;;3.00;1.60;;;;;;;;;;4939416;29;20496;-68
2023/08/23 07:59:17;;;;;;;2.80;1.40;;;;;;;;;;4939313;29;20048;-67
2023/08/23 08:01:43;;;;;;;2.20;1.33;;;;;;;;;;4926095;29;20354;-68
2023/08/23 08:04:09;;;;;;;2.22;1.20;;;;;;;;;;4943102;29;20023;-68
2023/08/23 08:06:35;;;;;;;3.42;1.30;;;;;;;;;;4942907;29;20024;-68
2023/08/23 08:09:01;;;;;;;2.45;1.30;;;;;;;;;;4942748;29;20028;-68
2023/08/23 08:11:27;;;;;;;3.55;1.80;;;;;;;;;;4942843;29;20839;-68
2023/08/23 08:13:53;;;;;;;2.90;1.40;;;;;;;;;;4942959;29;20028;-68
2023/08/23 08:16:19;;;;;;;2.17;1.50;;;;;;;;;;4942925;29;20032;-68
2023/08/23 08:18:45;;;;;;;3.08;1.50;;;;;;;;;;4942956;29;20031;-67
2023/08/23 08:21:11;;;;;;;2.85;1.33;;;;;;;;;;4925580;29;20038;-68
2023/08/23 08:23:37;;;;;;;3.22;1.45;;;;;;;;;;4942230;29;20055;-68
2023/08/23 08:26:05;;;;;;;4.35;1.90;;;;;;;;;;4942582;29;20035;-68
2023/08/23 08:28:31;;;;;;;2.80;1.60;;;;;;;;;;4942512;29;20079;-68
2023/08/23 08:30:57;;;;;;;2.20;1.40;;;;;;;;;;4942648;29;20115;-68
2023/08/23 08:33:23;;;;;;;2.38;1.42;;;;;;;;;;4942559;29;20059;-68
2023/08/23 08:35:49;;;;;;;1.85;1.30;;;;;;;;;;4925458;29;20059;-68
2023/08/23 08:38:15;;;;;;;3.50;1.60;;;;;;;;;;4939630;29;20023;-68
2023/08/23 08:40:41;;;;;;;3.47;1.90;;;;;;;;;;4932400;29;20087;-68
2023/08/23 08:43:08;;;;;;;2.33;1.60;;;;;;;;;;4925061;29;20035;-68
2023/08/23 08:45:34;;;;;;;3.00;1.70;;;;;;;;;;4942222;29;20031;-68
2023/08/23 08:48:00;;;;;;;2.53;1.70;;;;;;;;;;4942041;29;20028;-68
2023/08/23 08:50:26;;;;;;;4.82;2.03;;;;;;;;;;4942023;29;20067;-68
2023/08/23 08:52:53;;;;;;;2.88;1.90;;;;;;;;;;4924756;29;20075;-68
2023/08/23 08:55:20;;;;;;;1.52;1.30;;;;;;;;;;4924995;29;20052;-68
2023/08/23 08:57:49;;;;;;;4.05;1.40;;;;;;;;;;4942040;29;20405;-68
2023/08/23 09:00:15;;;;;;;1.83;0.90;;;21.40;99.90;;;;;;4942037;29;20032;-68
2023/08/23 09:02:42;;;;;;;3.22;1.10;;;21.30;99.90;;;;;;4942134;29;20031;-68
2023/08/23 09:05:08;;;;;;;2.45;0.88;;;21.40;99.90;;;;;;4942006;29;20028;-68
2023/08/23 09:07:35;;;;;;;1.20;0.80;;;21.40;99.90;;;;;;4941723;29;20028;-68
2023/08/23 09:10:03;;;;;;;2.42;1.25;;;21.60;99.90;;;;;;4941812;29;20560;-69
2023/08/23 09:12:29;;;;;;;2.67;0.80;;;21.60;99.90;;;;;;4923980;29;20095;-68
2023/08/23 09:14:56;;;;;;;3.47;0.95;;;21.70;99.90;;;;;;4941811;29;20500;-68
2023/08/23 09:17:26;;;;;;;1.92;0.80;;;21.70;99.90;;;;;;4941742;29;20047;-68
2023/08/23 09:19:52;;;;;;;2.22;0.75;;;21.70;99.90;;;;;;4924903;29;20070;-68
2023/08/23 09:22:21;;;;;;;1.30;0.63;;;21.80;99.90;;;;;;4941148;29;20051;-68
2023/08/23 09:24:46;;;;;;;0.98;0.80;;;21.90;99.90;;;;;;4941577;29;20032;-68
2023/08/23 09:27:12;;;;;;;1.58;0.93;;;22.00;99.90;;;;;;4941382;29;20046;-68
2023/08/23 09:29:38;;;;;;;1.67;0.85;;;21.90;99.90;;;;;;4941535;29;20083;-68
2023/08/23 09:32:07;;;;;;;2.35;0.90;;;22.00;99.90;;;;;;4941114;29;20024;-68
2023/08/23 09:34:32;;;;;;;2.03;0.82;;;22.00;99.90;;;;;;4941457;29;20170;-68
2023/08/23 09:37:08;;;;;;;2.55;0.80;;;22.00;99.90;;;;;;4941417;29;20141;-68
2023/08/23 09:39:34;;;;;;;1.67;0.73;;;22.20;99.90;;;;;;4928376;29;20438;-68
2023/08/23 09:42:06;;;;;;;1.45;0.80;;;22.30;99.90;;;;;;4941399;29;20507;-68
2023/08/23 09:44:39;;;;;;;2.03;0.80;;;22.40;99.90;;;;;;4941349;29;20091;-68
2023/08/23 09:47:05;;;;;;;;;;;22.40;99.90;;;;;;4941861;29;20023;-68
2023/08/23 09:49:33;;;;;;;2.17;0.90;;;22.30;99.90;;;;;;4940986;29;20327;-68
2023/08/23 09:52:00;;;;;;;2.88;1.40;;;22.30;99.90;;;;;;4940001;29;20959;-68
2023/08/23 09:54:37;;;;;;;2.45;1.10;;;22.50;99.90;;;;;;4941033;29;20031;-68
2023/08/23 09:57:04;;;;;;;2.03;1.02;;;22.60;99.90;;;;;;4941146;29;20024;-67
2023/08/23 09:59:30;;;;;;;2.13;0.93;;;22.70;99.90;;;;;;4940864;29;20059;-68
2023/08/23 10:01:55;;;;;;;1.50;1.10;;;22.80;99.90;;;;;;4941155;29;20036;-68
2023/08/23 10:04:22;;;;;;;2.05;1.00;;;22.90;99.90;;;;;;4940963;29;20024;-68
2023/08/23 10:06:48;;;;;;;2.53;1.20;;;23.00;99.90;;;;;;4940691;29;20035;-68
2023/08/23 10:09:16;;;;;;;2.65;1.08;;;23.10;99.90;;;;;;4940769;29;20107;-68
2023/08/23 10:11:42;;;;;;;2.08;1.00;;;23.10;99.90;;;;;;4923531;29;20039;-68
2023/08/23 10:14:09;;;;;;;3.78;1.17;;;23.20;99.90;;;;;;4940699;29;20032;-68
2023/08/23 10:16:36;;;;;;;1.42;1.00;;;23.20;99.90;;;;;;4940837;29;20019;-68
2023/08/23 10:19:02;;;;;;;2.50;1.08;;;23.10;99.90;;;;;;4940628;29;20071;-68
2023/08/23 10:21:28;;;;;;;2.38;0.90;;;23.00;99.90;;;;;;4940664;29;20028;-68
2023/08/23 10:23:54;;;;;;;3.80;1.10;;;23.00;99.90;;;;;;4939248;29;20043;-68
2023/08/23 10:26:21;;;;;;;2.10;1.05;;;23.00;99.90;;;;;;4923408;29;20127;-68
2023/08/23 10:28:52;;;;;;;2.10;1.20;;;23.00;99.90;;;;;;4940374;29;20094;-68
2023/08/23 10:31:28;;;;;;;4.05;1.33;;;23.10;99.90;;;;;;4923299;29;20613;-68
2023/08/23 10:33:57;;;;;;;3.63;1.15;;;23.00;99.90;;;;;;4923402;29;20408;-68
2023/08/23 10:36:25;;;;;;;1.20;1.00;;;23.10;99.90;;;;;;4923118;29;20088;-69
2023/08/23 10:38:53;;;;;;;4.05;1.50;;;23.20;99.90;;;;;;4932913;29;20068;-68
2023/08/23 10:41:18;;;;;;;1.35;1.00;;;23.20;99.90;;;;;;4935068;29;20028;-68
2023/08/23 10:43:47;;;;;;;3.25;1.30;;;23.30;99.90;;;;;;4940549;29;20034;-68
2023/08/23 10:46:16;;;;;;;1.67;1.30;;;23.30;99.90;;;;;;4940190;29;20110;-68
2023/08/23 10:48:42;;;;;;;2.45;1.30;;;23.20;99.90;;;;;;4940236;29;20066;-68
2023/08/23 10:51:08;;;;;;;3.22;1.20;;;23.10;99.90;;;;;;4940104;29;20032;-68
2023/08/23 10:53:33;;;;;;;2.05;1.30;;;23.10;99.90;;;;;;4940000;29;20024;-68
2023/08/23 10:56:02;;;;;;;2.05;1.30;;;23.10;99.90;;;;;;4940057;29;20547;-68
2023/08/23 10:58:30;;;;;;;2.60;1.60;;;23.00;99.90;;;;;;4940207;29;20028;-68
2023/08/23 11:00:56;;;;;;;3.13;1.48;;;23.00;99.90;;;;;;4939890;29;20393;-68
2023/08/23 11:03:22;;;;;;;3.55;1.40;;;23.00;99.90;;;;;;4940181;29;20032;-68
2023/08/23 11:05:48;;;;;;;4.57;1.33;;;23.00;99.90;;;;;;4940072;29;20106;-68
2023/08/23 11:08:15;;;;;;;3.60;1.85;;;23.10;99.90;;;;;;4939828;29;20034;-68
2023/08/23 11:10:42;;;;;;;3.22;1.70;;;23.20;99.90;;;;;;4939622;29;20042;-68
2023/08/23 11:13:08;;;;;;;3.15;2.00;;;23.30;99.90;;;;;;4939974;29;20031;-68
2023/08/23 11:15:34;;;;;;;3.47;1.80;;;23.50;99.90;;;;;;4922773;29;20032;-68
2023/08/23 11:18:00;;;;;;;2.47;1.63;;;23.50;99.90;;;;;;4939935;29;20080;-68
2023/08/23 11:20:28;;;;;;;1.83;1.52;;;23.70;99.90;;;;;;4939830;29;20087;-68
2023/08/23 11:22:53;;;;;;;3.72;1.85;;;23.80;99.90;;;;;;4922366;29;20424;-68
2023/08/23 11:25:19;;;;;;;2.72;1.45;;;24.00;99.90;;;;;;4939640;29;20027;-68
2023/08/23 11:27:45;;;;;;;4.30;1.65;;;24.00;99.90;;;;;;4939847;29;20495;-68
2023/08/23 11:30:10;;;;;;;2.72;1.20;;;24.10;99.90;;;;;;4939608;29;20055;-68
2023/08/23 11:32:37;;;;;;;3.80;1.08;;;24.00;99.90;;;;;;4939966;29;20024;-69
2023/08/23 11:35:05;;;;;;;1.85;1.13;;;24.20;99.90;;;;;;4941277;29;20023;-68
2023/08/23 11:37:30;;;;;;;1.77;1.00;;;24.40;99.90;;;;;;4943587;29;20392;-68
2023/08/23 11:39:56;;;;;;;2.90;1.10;;;24.50;99.90;;;;;;4930539;29;20035;-68
2023/08/23 11:42:23;;;;;;;2.42;1.15;;;24.50;99.90;;;;;;4926408;29;20055;-68
2023/08/23 11:44:49;;;;;;;2.25;1.00;;;24.60;99.90;;;;;;4943647;29;20086;-68
2023/08/23 11:47:14;;;;;;;4.22;1.33;;;24.60;99.90;;;;;;4943524;29;20020;-68
2023/08/23 11:49:40;;;;;;;2.15;1.27;;;24.70;99.90;;;;;;4943276;29;20043;-68
2023/08/23 11:52:05;;;;;;;1.90;1.20;;;24.70;99.90;;;;;;4942961;29;20024;-68
2023/08/23 11:54:31;;;;;;;1.75;1.20;;;24.70;99.90;;;;;;4926168;29;20032;-68
2023/08/23 11:57:00;;;;;;;4.53;1.48;;;24.80;99.90;;;;;;4943317;29;20055;-68
2023/08/23 11:59:26;;;;;;;4.38;1.88;;;24.80;99.90;;;;;;4942103;29;20498;-68
2023/08/23 12:01:51;;;;;;;1.95;1.60;;;24.80;99.90;;;;;;4943359;29;20066;-68
2023/08/23 12:04:17;;;;;;;2.55;1.70;;;24.90;99.90;;;;;;4943048;29;20066;-68
2023/08/23 12:06:43;;;;;;;3.95;1.40;;;24.90;99.90;;;;;;4943049;29;20023;-68
2023/08/23 12:09:11;;;;;;;3.25;1.23;;;25.10;99.90;;;;;;4942965;29;20830;-68
2023/08/23 12:11:37;;;;;;;2.58;1.40;;;25.00;99.90;;;;;;4942955;29;20551;-69
2023/08/23 12:14:04;;;;;;;3.15;1.27;;;25.20;99.90;;;;;;4942910;29;20077;-68
2023/08/23 12:16:30;;;;;;;4.78;1.48;;;25.20;99.90;;;;;;4943012;29;20027;-68
2023/08/23 12:18:56;;;;;;;3.10;1.50;;;25.30;99.90;;;;;;4942902;29;20556;-68
2023/08/23 12:21:22;;;;;;;1.80;1.48;;;25.40;99.90;;;;;;4942837;29;20031;-69
2023/08/23 12:23:48;;;;;;;3.88;1.50;;;25.40;99.90;;;;;;4925444;29;20548;-68
2023/08/23 12:26:13;;;;;;;1.40;1.30;;;25.50;99.90;;;;;;4942676;29;20028;-68
2023/08/23 12:28:39;;;;;;;2.33;1.30;;;25.40;99.90;;;;;;4942640;29;20088;-68
2023/08/23 12:31:05;;;;;;;2.30;1.73;;;25.50;99.90;;;;;;4941629;29;20573;-68
2023/08/23 12:33:30;;;;;;;2.38;1.60;;;25.50;99.90;;;;;;4942627;29;20020;-68
2023/08/23 12:35:56;;;;;;;2.08;1.40;;;25.60;99.90;;;;;;4942530;29;20051;-68
2023/08/23 12:38:21;;;;;;;1.92;1.02;;;25.70;99.90;;;;;;4939102;29;20031;-68
2023/08/23 12:40:47;;;;;;;4.00;1.60;;;25.80;99.90;;;;;;4932079;29;20395;-68
2023/08/23 12:43:13;;;;;;;3.65;1.67;;;25.80;99.90;;;;;;4941302;29;20430;-68
2023/08/23 12:45:38;;;;;;;2.00;1.35;;;26.00;99.90;;;;;;4942167;29;20059;-68
2023/08/23 12:48:04;;;;;;;2.22;1.48;;;26.00;99.90;;;;;;4941577;29;20027;-68
2023/08/23 12:50:30;;;;;;;1.88;1.30;;;26.10;99.90;;;;;;4942271;29;20028;-68
2023/08/23 12:52:55;;;;;;;2.45;1.35;;;26.20;99.90;;;;;;4942115;29;20075;-68
2023/08/23 12:55:22;;;;;;;3.63;1.20;;;26.30;99.60;;;;;;4942176;29;20079;-68
2023/08/23 12:57:47;;;;;;;1.65;1.27;;;26.30;99.50;;;;;;4942179;29;20028;-68
2023/08/23 13:00:15;;;;;;;3.90;1.42;;;26.40;99.00;;;;;;4942155;29;20051;-68
2023/08/23 13:02:40;;;;;;;3.40;1.50;;;26.40;99.50;;;;;;4942058;29;20024;-68
2023/08/23 13:05:07;;;;;;;11.90;6.35;;;26.50;99.70;;;;;;4942010;29;20503;-67
2023/08/23 13:07:33;;;;;;;2.38;1.92;;;26.70;99.10;;;;;;4941915;29;20027;-68
2023/08/23 13:09:59;;;;;;;27.17;15.52;;;26.80;98.90;;;;;;4941720;29;20024;-68
2023/08/23 13:12:25;;;;;;;8.48;4.90;;;26.80;98.00;;;;;;4941972;29;20108;-68
2023/08/23 13:14:51;;;;;;;4.78;3.33;;;26.90;97.80;;;;;;4941929;29;20493;-68
2023/08/23 13:17:17;;;;;;;5.18;3.58;;;27.00;98.50;;;;;;4924629;29;20031;-68
2023/08/23 13:19:42;;;;;;;4.20;3.17;;;27.20;98.30;;;;;;4941945;29;20106;-68
2023/08/23 13:22:10;;;;;;;3.08;1.90;;;27.30;96.90;;;;;;4924129;29;20115;-68
2023/08/23 13:24:35;;;;;;;3.55;2.25;;;27.30;97.10;;;;;;4941492;29;20059;-68
2023/08/23 13:27:02;;;;;;;4.38;2.22;;;27.30;97.00;;;;;;4941405;29;20042;-68
2023/08/23 13:29:27;;;;;;;3.22;2.38;;;27.40;96.90;;;;;;4941588;29;20059;-68
2023/08/23 13:31:53;;;;;;;2.47;1.60;;;27.40;96.90;;;;;;4941457;29;20034;-68
2023/08/23 13:34:18;;;;;;;2.75;1.50;;;27.50;96.70;;;;;;4941632;29;20023;-68
2023/08/23 13:36:44;;;;;;;2.42;1.80;;;27.50;96.40;;;;;;4941274;29;20034;-68
2023/08/23 13:39:13;;;;;;;3.20;1.63;;;27.50;95.40;;;;;;4914690;29;20039;-68
2023/08/23 13:41:38;;;;;;;2.83;1.40;;;27.50;96.30;;;;;;4938911;29;20028;-68
2023/08/23 13:44:05;;;;;;;3.50;1.50;;;27.60;96.60;;;;;;4941341;29;20460;-68
2023/08/23 13:46:30;;;;;;;3.15;1.60;;;27.70;96.00;;;;;;4941424;29;20036;-68
2023/08/23 13:48:56;;;;;;;1.98;1.45;;;27.60;95.80;;;;;;4941273;29;20374;-68
2023/08/23 13:51:22;;;;;;;2.92;1.35;;;27.70;96.80;;;;;;4923937;29;20091;-68
2023/08/23 13:53:48;;;;;;;4.28;1.70;;;27.70;94.60;;;;;;4940948;29;20412;-68
2023/08/23 13:56:15;;;;;;;1.98;1.25;;;27.60;95.30;;;;;;4940930;29;20027;-68